Terminal Aerodrome Forecast
Issued by NWS

Home | Current Version | Previous Version | Text Only | Print | Product List | Glossary Off
Versions: 1 2 3 4 5 6 7 8 9 10 11 12 13 14 15 16 17 18 19 20 21 22 23 24

000
FTUS43 KBIS 220532
TAFDIK
TAF
KDIK 220532Z 2206/2306 27010KT P6SM VCFG SKC
      TEMPO 2207/2210 3SM BR
     FM221000 28009KT 3SM BR SCT015
      TEMPO 2210/2213 BKN006 OVC010
     FM221300 28009KT 5SM BR OVC006
     FM221800 27011KT P6SM OVC015
     FM230000 26008KT P6SM BKN025 OVC035=

USA.gov is the U.S. government's official web portal to all federal, state and local government web resources and services.